createdAt,value
2023-02-12T00:00:45.405Z,31.67
2023-02-12T00:03:49.685Z,29.95
2023-02-12T00:06:53.550Z,32.20
2023-02-12T00:09:58.607Z,28.67
2023-02-12T00:13:01.730Z,29.25
2023-02-12T00:16:10.065Z,29.42
2023-02-12T00:19:13.243Z,26.57
2023-02-12T00:22:17.538Z,25.55
2023-02-12T00:25:20.785Z,26.55
2023-02-12T00:28:24.395Z,28.35
2023-02-12T00:31:30.740Z,27.40
2023-02-12T00:34:34.233Z,27.70
2023-02-12T00:37:37.336Z,23.08
2023-02-12T00:40:40.911Z,29.20
2023-02-12T00:43:44.577Z,22.87
2023-02-12T00:46:48.140Z,25.05
2023-02-12T00:49:53.025Z,24.53
2023-02-12T00:52:56.401Z,24.17
2023-02-12T00:56:00.347Z,23.33
2023-02-12T00:59:03.827Z,25.90
2023-02-12T01:02:07.002Z,25.92
2023-02-12T01:05:11.115Z,24.80
2023-02-12T01:08:16.521Z,24.00
2023-02-12T01:11:20.960Z,24.13
2023-02-12T01:14:26.157Z,24.60
2023-02-12T01:17:29.547Z,22.23
2023-02-12T01:20:33.597Z,24.40
2023-02-12T01:23:37.225Z,27.30
2023-02-12T01:26:40.420Z,27.35
2023-02-12T01:29:47.024Z,23.35
2023-02-12T01:32:50.328Z,29.40
2023-02-12T01:35:54.272Z,29.17
2023-02-12T01:38:59.356Z,26.08
2023-02-12T01:42:04.370Z,24.33
2023-02-12T01:45:13.560Z,24.48
2023-02-12T01:48:19.474Z,29.25
2023-02-12T01:51:24.403Z,25.77
2023-02-12T01:54:29.363Z,27.42
2023-02-12T01:57:34.840Z,25.50
2023-02-12T02:00:39.270Z,29.75
2023-02-12T02:03:45.366Z,26.40
2023-02-12T02:06:54.578Z,27.37
2023-02-12T02:09:59.214Z,26.10
2023-02-12T02:13:23.694Z,23.10
2023-02-12T02:16:30.759Z,25.23
2023-02-12T02:19:36.640Z,24.48
2023-02-12T02:23:10.261Z,24.87
2023-02-12T02:26:34.001Z,27.25
2023-02-12T02:29:47.716Z,23.85
2023-02-12T02:33:09.998Z,26.48
2023-02-12T02:36:32.192Z,26.17
2023-02-12T02:39:42.112Z,27.35
2023-02-12T02:43:28.442Z,23.48
2023-02-12T02:46:36.552Z,25.13
2023-02-12T02:49:51.448Z,26.27
2023-02-12T02:53:02.749Z,122.07
2023-02-12T02:56:09.018Z,24.33
2023-02-12T02:59:19.014Z,21.27
2023-02-12T03:02:29.587Z,24.02
2023-02-12T03:05:38.293Z,21.80
2023-02-12T03:08:49.856Z,20.80
2023-02-12T03:11:57.554Z,20.65
2023-02-12T03:15:12.514Z,23.67
2023-02-12T03:18:27.043Z,24.43
2023-02-12T03:21:35.573Z,22.67
2023-02-12T03:24:48.131Z,21.42
2023-02-12T03:28:10.089Z,20.57
2023-02-12T03:31:26.225Z,17.62
2023-02-12T03:35:14.979Z,20.85
2023-02-12T03:38:28.408Z,17.70
2023-02-12T03:41:40.457Z,18.65
2023-02-12T03:44:53.530Z,17.33
2023-02-12T03:47:59.938Z,18.77
2023-02-12T03:51:16.270Z,17.20
2023-02-12T03:54:22.294Z,18.52
2023-02-12T03:57:37.193Z,17.95
2023-02-12T04:00:41.242Z,16.00
2023-02-12T04:03:45.167Z,17.05
2023-02-12T04:06:50.592Z,16.52
2023-02-12T04:09:54.204Z,17.65
2023-02-12T04:13:16.305Z,19.42
2023-02-12T04:16:33.318Z,20.65
2023-02-12T04:20:27.793Z,19.35
2023-02-12T04:23:40.274Z,20.60
2023-02-12T04:26:49.318Z,18.87
2023-02-12T04:30:01.479Z,18.12
2023-02-12T04:33:10.850Z,22.10
2023-02-12T04:36:21.290Z,18.80
2023-02-12T04:39:32.981Z,22.48
2023-02-12T04:42:45.002Z,22.70
2023-02-12T04:45:48.119Z,23.20
2023-02-12T04:48:57.687Z,25.37
2023-02-12T04:52:01.900Z,23.40
2023-02-12T04:55:05.481Z,26.10
2023-02-12T04:58:09.237Z,24.98
2023-02-12T05:01:13.000Z,25.45
2023-02-12T05:04:17.576Z,27.93
2023-02-12T05:07:20.959Z,22.60
2023-02-12T05:10:24.126Z,25.73
2023-02-12T05:13:27.953Z,25.00
2023-02-12T05:16:31.087Z,23.42
2023-02-12T05:19:35.278Z,23.27
2023-02-12T05:22:38.587Z,23.98
2023-02-12T05:25:42.028Z,22.03
2023-02-12T05:28:45.291Z,24.33
2023-02-12T05:31:48.799Z,23.33
2023-02-12T05:34:52.129Z,23.20
2023-02-12T05:37:55.797Z,25.20
2023-02-12T05:41:10.835Z,22.73
2023-02-12T05:44:15.299Z,22.42
2023-02-12T05:47:18.596Z,20.27
2023-02-12T05:50:22.177Z,20.77
2023-02-12T05:53:34.550Z,26.67
2023-02-12T05:56:43.986Z,31.17
2023-02-12T05:59:47.554Z,30.92
2023-02-12T06:02:51.014Z,30.88
2023-02-12T06:05:55.065Z,31.27
2023-02-12T06:08:58.836Z,35.67
2023-02-12T06:12:02.218Z,32.38
2023-02-12T06:15:05.764Z,37.00
2023-02-12T06:18:09.399Z,35.13
2023-02-12T06:21:12.632Z,42.47
2023-02-12T06:24:17.619Z,42.58
2023-02-12T06:27:21.531Z,38.53
2023-02-12T06:30:25.054Z,39.13
2023-02-12T06:33:28.574Z,34.35
2023-02-12T06:36:32.646Z,39.43
2023-02-12T06:39:36.248Z,37.10
2023-02-12T06:42:39.624Z,38.28
2023-02-12T06:45:42.815Z,44.17
2023-02-12T06:48:46.528Z,39.15
2023-02-12T06:51:49.811Z,45.75
2023-02-12T06:54:53.620Z,46.53
2023-02-12T06:57:56.731Z,84.93
2023-02-12T07:01:18.783Z,71.28
2023-02-12T07:04:22.352Z,55.40
2023-02-12T07:07:25.877Z,57.70
2023-02-12T07:10:29.116Z,61.20
2023-02-12T07:13:35.063Z,49.90
2023-02-12T07:16:41.365Z,44.67
2023-02-12T07:19:44.810Z,48.42
2023-02-12T07:22:48.035Z,51.30
2023-02-12T07:25:59.534Z,52.55
2023-02-12T07:29:03.092Z,43.87
2023-02-12T07:32:07.423Z,35.90
2023-02-12T07:35:10.724Z,35.05
2023-02-12T07:38:14.458Z,37.30
2023-02-12T07:41:21.842Z,32.40
2023-02-12T07:44:25.584Z,29.77
2023-02-12T07:47:28.838Z,27.48
2023-02-12T07:50:32.230Z,23.02
2023-02-12T07:53:36.246Z,19.12
2023-02-12T07:56:44.269Z,22.48
2023-02-12T07:59:47.412Z,17.10
2023-02-12T08:02:54.690Z,19.20
2023-02-12T08:05:58.352Z,17.40
2023-02-12T08:09:03.698Z,19.00
2023-02-12T08:12:07.473Z,16.87
2023-02-12T08:15:11.549Z,17.52
2023-02-12T08:18:17.193Z,16.60
2023-02-12T08:21:23.376Z,16.40
2023-02-12T08:24:26.913Z,18.15
2023-02-12T08:27:30.238Z,13.52
2023-02-12T08:30:33.816Z,11.33
2023-02-12T08:33:37.473Z,12.80
2023-02-12T08:36:41.103Z,13.23
2023-02-12T08:39:44.253Z,10.50
2023-02-12T08:42:47.612Z,9.50
2023-02-12T08:45:50.735Z,9.48
2023-02-12T08:49:00.109Z,10.05
2023-02-12T08:52:03.599Z,9.63
2023-02-12T08:55:07.401Z,8.98
2023-02-12T08:58:10.622Z,8.90
2023-02-12T09:01:25.433Z,9.43
2023-02-12T09:04:29.543Z,9.85
2023-02-12T09:07:33.144Z,8.60
2023-02-12T09:10:40.676Z,9.95
2023-02-12T09:13:46.254Z,9.02
2023-02-12T09:16:52.671Z,10.27
2023-02-12T09:19:57.578Z,9.00
2023-02-12T09:23:01.018Z,9.25
2023-02-12T09:26:06.200Z,10.68
2023-02-12T09:29:10.026Z,11.02
2023-02-12T09:32:13.604Z,8.10
2023-02-12T09:35:18.735Z,8.93
2023-02-12T09:38:22.238Z,8.20
2023-02-12T09:41:44.494Z,7.62
2023-02-12T09:45:05.908Z,7.35
2023-02-12T09:48:43.354Z,8.63
2023-02-12T09:51:54.026Z,8.63
2023-02-12T09:54:58.375Z,9.15
2023-02-12T09:58:10.652Z,8.07
2023-02-12T10:01:17.441Z,11.65
2023-02-12T10:04:22.770Z,7.33
2023-02-12T10:07:32.346Z,8.63
2023-02-12T10:10:52.954Z,7.78
2023-02-12T10:14:18.419Z,7.07
2023-02-12T10:17:37.552Z,6.57
2023-02-12T10:20:58.812Z,7.77
2023-02-12T10:24:21.184Z,12.97
2023-02-12T10:27:41.168Z,7.60
2023-02-12T10:31:04.457Z,7.10
2023-02-12T10:34:25.232Z,6.57
2023-02-12T10:37:32.846Z,6.27
2023-02-12T10:40:39.380Z,7.27
2023-02-12T10:43:44.811Z,7.95
2023-02-12T10:46:48.467Z,12.20
2023-02-12T10:50:01.068Z,8.18
2023-02-12T10:53:04.647Z,13.93
2023-02-12T10:56:12.278Z,8.37
2023-02-12T10:59:24.297Z,8.07
2023-02-12T11:02:32.411Z,9.05
2023-02-12T11:05:36.734Z,6.65
2023-02-12T11:08:42.249Z,7.00
2023-02-12T11:11:49.594Z,8.90
2023-02-12T11:15:03.756Z,7.65
2023-02-12T11:18:20.382Z,9.45
2023-02-12T11:21:25.438Z,7.97
2023-02-12T11:24:36.979Z,7.70
2023-02-12T11:27:45.779Z,6.30
2023-02-12T11:31:00.341Z,9.10
2023-02-12T11:34:04.698Z,7.82
2023-02-12T11:37:19.459Z,10.32
2023-02-12T11:40:29.974Z,6.07
2023-02-12T11:43:37.512Z,8.37
2023-02-12T11:46:49.999Z,7.10
2023-02-12T11:50:05.962Z,6.37
2023-02-12T11:53:20.959Z,6.47
2023-02-12T11:56:25.555Z,5.63
2023-02-12T11:59:39.965Z,6.57
2023-02-12T12:03:16.747Z,5.75
2023-02-12T12:06:27.724Z,22.77
2023-02-12T12:10:01.786Z,24.00
2023-02-12T12:13:14.248Z,22.47
2023-02-12T12:16:47.441Z,26.20
2023-02-12T12:20:05.400Z,27.83
2023-02-12T12:23:49.212Z,25.90
2023-02-12T12:27:03.954Z,26.20
2023-02-12T12:30:19.065Z,27.97
2023-02-12T12:33:32.524Z,28.95
2023-02-12T12:37:03.330Z,28.92
2023-02-12T12:40:20.850Z,28.70
2023-02-12T12:43:36.617Z,36.70
2023-02-12T12:46:48.131Z,35.27
2023-02-12T12:50:27.138Z,35.55
2023-02-12T12:53:57.714Z,30.73
2023-02-12T12:57:19.745Z,46.92
2023-02-12T13:01:06.903Z,27.13
2023-02-12T13:04:45.736Z,230.03
2023-02-12T13:07:53.318Z,38.53
2023-02-12T13:11:30.681Z,30.37
2023-02-12T13:14:39.095Z,18.65
2023-02-12T13:17:46.299Z,24.33
2023-02-12T13:21:16.282Z,28.25
2023-02-12T13:24:32.129Z,28.05
2023-02-12T13:27:45.680Z,28.05
2023-02-12T13:30:54.008Z,28.77
2023-02-12T13:34:02.829Z,29.23
2023-02-12T13:37:16.140Z,33.95
2023-02-12T13:40:26.578Z,26.98
2023-02-12T13:43:48.600Z,29.60
2023-02-12T13:47:04.925Z,29.63
2023-02-12T13:50:24.627Z,25.75
2023-02-12T13:53:46.485Z,28.45
2023-02-12T13:56:54.727Z,27.95
2023-02-12T14:00:00.425Z,30.35
2023-02-12T14:03:10.373Z,27.95
2023-02-12T14:06:22.336Z,28.50
2023-02-12T14:10:00.348Z,27.33
2023-02-12T14:13:13.392Z,29.77
2023-02-12T14:16:20.760Z,28.73
2023-02-12T14:19:50.863Z,30.65
2023-02-12T14:23:21.792Z,26.62
2023-02-12T14:26:37.480Z,29.73
2023-02-12T14:30:24.180Z,33.13
2023-02-12T14:33:29.148Z,30.45
2023-02-12T14:36:33.361Z,32.25
2023-02-12T14:39:38.585Z,32.97
2023-02-12T14:42:55.500Z,30.92
2023-02-12T14:46:25.857Z,32.50
2023-02-12T14:49:53.366Z,33.53
2023-02-12T14:53:30.938Z,44.10
2023-02-12T14:56:47.542Z,40.30
2023-02-12T15:00:13.960Z,43.10
2023-02-12T15:03:20.631Z,39.78
2023-02-12T15:06:38.537Z,45.97
2023-02-12T15:09:52.957Z,40.65
2023-02-12T15:13:34.984Z,49.85
2023-02-12T15:16:49.449Z,47.13
2023-02-12T15:20:04.409Z,42.33
2023-02-12T15:23:33.810Z,44.80
2023-02-12T15:26:47.328Z,47.80
2023-02-12T15:29:56.205Z,39.45
2023-02-12T15:33:14.267Z,46.08
2023-02-12T15:36:27.393Z,38.97
2023-02-12T15:39:45.371Z,44.17
2023-02-12T15:43:00.089Z,45.20
2023-02-12T15:46:16.863Z,41.35
2023-02-12T15:49:25.564Z,49.10
2023-02-12T15:52:36.599Z,45.12
2023-02-12T15:55:46.935Z,47.47
2023-02-12T15:58:54.692Z,48.60
2023-02-12T16:02:03.984Z,41.53
2023-02-12T16:05:16.221Z,42.80
2023-02-12T16:08:23.504Z,51.47
2023-02-12T16:11:31.000Z,54.40
2023-02-12T16:14:49.148Z,49.20
2023-02-12T16:17:55.889Z,56.10
2023-02-12T16:21:22.956Z,63.77
2023-02-12T16:24:48.688Z,61.72
2023-02-12T16:28:08.929Z,55.55
2023-02-12T16:31:17.456Z,61.87
2023-02-12T16:34:37.471Z,65.25
2023-02-12T16:37:51.212Z,71.22
2023-02-12T16:41:35.817Z,62.20
2023-02-12T16:44:42.474Z,74.43
2023-02-12T16:47:51.666Z,80.20
2023-02-12T16:50:59.301Z,75.15
2023-02-12T16:54:06.109Z,91.40
2023-02-12T16:57:13.518Z,90.85
2023-02-12T17:00:24.560Z,99.80
2023-02-12T17:03:33.307Z,103.90
2023-02-12T17:06:38.244Z,93.35
2023-02-12T17:09:44.839Z,97.50
2023-02-12T17:12:52.680Z,116.85
2023-02-12T17:16:01.917Z,114.93
2023-02-12T17:19:06.966Z,111.00
2023-02-12T17:22:31.237Z,107.40
2023-02-12T17:25:39.286Z,101.10
2023-02-12T17:28:45.360Z,95.53
2023-02-12T17:31:55.374Z,77.60
2023-02-12T17:35:02.968Z,87.83
2023-02-12T17:38:08.913Z,72.07
2023-02-12T17:41:15.636Z,74.72
2023-02-12T17:44:21.481Z,74.30
2023-02-12T17:47:27.106Z,80.95
2023-02-12T17:50:32.608Z,89.07
2023-02-12T17:53:39.733Z,80.40
2023-02-12T17:56:44.275Z,90.20
2023-02-12T17:59:49.989Z,77.12
2023-02-12T18:02:57.124Z,77.62
2023-02-12T18:06:04.489Z,76.90
2023-02-12T18:09:12.623Z,79.15
2023-02-12T18:12:19.018Z,83.35
2023-02-12T18:15:27.900Z,83.68
2023-02-12T18:18:36.075Z,78.65
2023-02-12T18:21:48.015Z,86.55
2023-02-12T18:24:52.750Z,80.93
2023-02-12T18:27:58.485Z,82.63
2023-02-12T18:31:05.887Z,82.25
2023-02-12T18:34:11.242Z,85.18
2023-02-12T18:37:18.972Z,77.13
2023-02-12T18:40:28.468Z,81.43
2023-02-12T18:43:37.686Z,80.95
2023-02-12T18:46:47.121Z,79.55
2023-02-12T18:49:54.561Z,82.82
2023-02-12T18:53:02.348Z,86.87
2023-02-12T18:56:11.085Z,87.37
2023-02-12T18:59:19.380Z,93.97
2023-02-12T19:02:27.473Z,90.47
2023-02-12T19:05:38.456Z,89.70
2023-02-12T19:08:44.352Z,98.03
2023-02-12T19:11:53.604Z,116.57
2023-02-12T19:15:01.018Z,140.15
2023-02-12T19:18:10.469Z,146.40
2023-02-12T19:21:20.740Z,133.75
2023-02-12T19:24:40.857Z,140.77
2023-02-12T19:27:52.192Z,124.50
2023-02-12T19:30:57.676Z,127.00
2023-02-12T19:34:09.761Z,118.25
2023-02-12T19:37:17.143Z,133.15
2023-02-12T19:40:23.161Z,120.53
2023-02-12T19:43:30.089Z,111.75
2023-02-12T19:46:39.901Z,111.37
2023-02-12T19:49:46.513Z,115.03
2023-02-12T19:52:52.823Z,118.45
2023-02-12T19:56:05.517Z,108.55
2023-02-12T19:59:17.808Z,113.80
2023-02-12T20:02:23.166Z,158.70
2023-02-12T20:05:30.830Z,130.82
2023-02-12T20:08:40.287Z,119.40
2023-02-12T20:11:46.720Z,141.97
2023-02-12T20:14:51.876Z,126.00
2023-02-12T20:17:59.685Z,125.05
2023-02-12T20:21:12.985Z,120.80
2023-02-12T20:24:19.787Z,130.02
2023-02-12T20:27:26.964Z,130.77
2023-02-12T20:30:35.221Z,135.18
2023-02-12T20:33:41.223Z,140.40
2023-02-12T20:36:48.060Z,132.02
2023-02-12T20:39:55.794Z,107.12
2023-02-12T20:43:03.217Z,117.50
2023-02-12T20:46:12.382Z,121.47
2023-02-12T20:49:20.462Z,126.93
2023-02-12T20:52:26.422Z,111.53
2023-02-12T20:55:31.526Z,124.03
2023-02-12T20:58:36.493Z,120.22
2023-02-12T21:01:43.645Z,138.52
2023-02-12T21:04:52.432Z,116.97
2023-02-12T21:07:59.089Z,115.40
2023-02-12T21:11:13.636Z,106.47
2023-02-12T21:14:23.129Z,129.20
2023-02-12T21:17:28.475Z,123.68
2023-02-12T21:20:33.676Z,129.30
2023-02-12T21:23:39.067Z,111.30
2023-02-12T21:26:45.886Z,119.68
2023-02-12T21:29:55.265Z,114.53
2023-02-12T21:33:06.827Z,108.60
2023-02-12T21:36:15.337Z,130.40
2023-02-12T21:39:29.571Z,118.37
2023-02-12T21:42:33.772Z,136.12
2023-02-12T21:45:38.454Z,140.57
2023-02-12T21:48:43.017Z,138.40
2023-02-12T21:51:50.617Z,114.43
2023-02-12T21:54:58.312Z,120.40
2023-02-12T21:58:03.956Z,119.40
2023-02-12T22:01:16.612Z,116.97
2023-02-12T22:04:21.516Z,107.35
2023-02-12T22:07:26.266Z,102.30
2023-02-12T22:10:29.822Z,100.82
2023-02-12T22:13:33.489Z,97.25
2023-02-12T22:16:37.540Z,91.70
2023-02-12T22:19:41.053Z,98.43
2023-02-12T22:22:44.800Z,85.35
2023-02-12T22:25:48.107Z,81.18
2023-02-12T22:28:54.539Z,87.90
2023-02-12T22:31:58.638Z,83.07
2023-02-12T22:35:02.249Z,66.07
2023-02-12T22:38:05.661Z,77.23
2023-02-12T22:41:10.348Z,74.65
2023-02-12T22:44:14.811Z,75.97
2023-02-12T22:47:18.344Z,71.93
2023-02-12T22:50:21.541Z,83.87
2023-02-12T22:53:26.015Z,81.30
2023-02-12T22:56:29.235Z,90.45
2023-02-12T22:59:32.710Z,78.72
2023-02-12T23:02:36.609Z,79.18
2023-02-12T23:05:40.119Z,72.60
2023-02-12T23:08:44.050Z,72.10
2023-02-12T23:11:49.001Z,72.28
2023-02-12T23:14:52.194Z,71.50
2023-02-12T23:17:55.574Z,86.07
2023-02-12T23:20:59.508Z,87.37
2023-02-12T23:24:03.089Z,92.90
2023-02-12T23:27:06.401Z,100.47
2023-02-12T23:30:10.509Z,97.82
2023-02-12T23:33:13.703Z,90.15
2023-02-12T23:36:17.329Z,90.57
2023-02-12T23:39:20.712Z,83.33
2023-02-12T23:42:24.187Z,82.25
2023-02-12T23:45:28.521Z,80.12
2023-02-12T23:48:32.596Z,85.37
2023-02-12T23:51:35.817Z,81.75
2023-02-12T23:54:40.868Z,77.55
2023-02-12T23:57:44.043Z,83.30
